Time;durP1;ratioP1;P1;durP2;ratioP2;P2;SDS_P1;SDS_P2;PMS_P1;PMS_P2;Temp;Humidity;BMP_temperature;BMP_pressure;BME280_temperature;BME280_humidity;BME280_pressure;Samples;Min_cycle;Max_cycle;Signal;HPM_P1;HPM_P2
2022/10/04 00:02:04;;;;;;;12.73;7.20;;;;;;;;;;4893457;29;20032;-59
2022/10/04 00:04:43;;;;;;;15.98;7.70;;;;;;;;;;4885615;29;20434;-59
2022/10/04 00:07:11;;;;;;;13.55;7.57;;;;;;;;;;4894533;29;20096;-60
2022/10/04 00:09:58;;;;;;;13.80;7.50;;;;;;;;;;4890832;29;20044;-58
2022/10/04 00:12:32;;;;;;;15.85;7.40;;;;;;;;;;4892766;29;20044;-60
2022/10/04 00:15:00;;;;;;;13.73;7.55;;;;;;;;;;4895431;29;20458;-60
2022/10/04 00:17:30;;;;;;;13.07;7.72;;;;;;;;;;4893319;29;20644;-60
2022/10/04 00:19:56;;;;;;;13.70;7.50;;;;;;;;;;4896389;29;20120;-58
2022/10/04 00:22:27;;;;;;;12.93;7.45;;;;;;;;;;4876967;29;20540;-59
2022/10/04 00:25:12;;;;;;;14.15;7.65;;;;;;;;;;4895227;29;20174;-59
2022/10/04 00:27:39;;;;;;;15.25;8.15;;;;;;;;;;4892013;29;20388;-58
2022/10/04 00:30:05;;;;;;;14.02;8.15;;;;;;;;;;4894797;29;20084;-58
2022/10/04 00:32:39;;;;;;;14.60;8.40;;;;;;;;;;4892231;29;20036;-59
2022/10/04 00:35:23;;;;;;;15.23;7.80;;;;;;;;;;4885533;29;20041;-59
2022/10/04 00:38:11;;;;;;;15.13;7.60;;;;;;;;;;4894444;29;20389;-60
2022/10/04 00:41:00;;;;;;;16.05;7.60;;;;;;;;;;4893241;29;20469;-60
2022/10/04 00:43:35;;;;;;;14.02;7.30;;;;;;;;;;4892618;29;20265;-61
2022/10/04 00:46:05;;;;;;;15.45;7.43;;;;;;;;;;4893645;29;20067;-59
2022/10/04 00:48:45;;;;;;;13.80;7.90;;;;;;;;;;4889970;29;20043;-60
2022/10/04 00:51:32;;;;;;;13.10;7.30;;;;;;;;;;4882296;29;20075;-60
2022/10/04 00:53:57;;;;;;;12.27;7.20;;;;;;;;;;4896474;29;20044;-58
2022/10/04 00:56:47;;;;;;;13.73;7.00;;;;;;;;;;4897137;29;20032;-60
2022/10/04 00:59:16;;;;;;;15.25;7.70;;;;;;;;;;4888050;29;20049;-60
2022/10/04 01:01:43;;;;;;;14.45;7.32;;;;;;;;;;4899238;29;20433;-59
2022/10/04 01:04:26;;;;;;;12.18;6.97;;;;;;;;;;4896971;29;20405;-61
2022/10/04 01:07:03;;;;;;;11.57;6.57;;;;;;;;;;4862293;29;20484;-60
2022/10/04 01:09:33;;;;;;;11.27;6.75;;;;;;;;;;4875859;29;20270;-59
2022/10/04 01:12:05;;;;;;;12.50;7.10;;;;;;;;;;4878548;29;20037;-57
2022/10/04 01:14:58;;;;;;;11.00;6.90;;;;;;;;;;4860010;29;20044;-59
2022/10/04 01:17:24;;;;;;;10.75;6.65;;;;;;;;;;4876366;29;20041;-60
2022/10/04 01:19:52;;;;;;;11.80;6.90;;;;;;;;;;4880826;29;20466;-60
2022/10/04 01:22:49;;;;;;;15.73;7.53;;;;;;;;;;4877248;29;20113;-59
2022/10/04 01:25:47;;;;;;;11.43;6.50;;;;;;;;;;4853447;29;20521;-60
2022/10/04 01:28:13;;;;;;;12.05;7.30;;;;;;;;;;4875788;29;20128;-61
2022/10/04 01:30:38;;;;;;;13.32;7.20;;;;;;;;;;4879305;29;20116;-61
2022/10/04 01:33:05;;;;;;;9.90;7.10;;;;;;;;;;4877407;29;20045;-59
2022/10/04 01:35:32;;;;;;;13.93;7.50;;;;;;;;;;4877340;29;20043;-58
2022/10/04 01:37:58;;;;;;;13.77;7.30;;;;;;;;;;4879275;29;20021;-59
2022/10/04 01:40:23;;;;;;;15.52;7.40;;;;;;;;;;4874939;29;20738;-59
2022/10/04 01:42:56;;;;;;;13.48;7.22;;;;;;;;;;4878118;29;20041;-59
2022/10/04 01:45:34;;;;;;;11.93;6.75;;;;;;;;;;4875525;29;20055;-59
2022/10/04 01:48:04;;;;;;;10.95;7.38;;;;;;;;;;4878110;29;20088;-59
2022/10/04 01:50:38;;;;;;;13.93;7.30;;;;;;;;;;4874109;29;20212;-59
2022/10/04 01:53:29;;;;;;;14.18;7.15;;;;;;;;;;4873382;29;20063;-59
2022/10/04 01:56:10;;;;;;;14.38;7.50;;;;;;;;;;4869774;29;20049;-58
2022/10/04 01:59:00;;;;;;;11.38;7.05;;;;;;;;;;4867364;29;20029;-60
2022/10/04 02:01:49;;;;;;;14.25;7.20;;;;;;;;;;4860262;29;20049;-59
2022/10/04 02:04:19;;;;;;;13.23;6.40;;;;;;;;;;4869501;29;20029;-60
2022/10/04 02:06:46;;;;;;;12.75;6.90;;;;;;;;;;4879979;29;20128;-59
2022/10/04 02:09:17;;;;;;;12.10;6.53;;;;;;;;;;4875408;29;20037;-59
2022/10/04 02:11:43;;;;;;;;;;;;;;;;;;4876540;29;20113;-58
2022/10/04 02:14:17;;;;;;;17.33;7.60;;;;;;;;;;4875319;29;20412;-58
2022/10/04 02:16:45;;;;;;;13.85;7.78;;;;;;;;;;4878557;29;20466;-59
2022/10/04 02:19:11;;;;;;;16.70;8.15;;;;;;;;;;4877754;29;20025;-59
2022/10/04 02:21:37;;;;;;;16.38;7.78;;;;;;;;;;4878343;29;20041;-59
2022/10/04 02:24:04;;;;;;;12.32;7.32;;;;;;;;;;4875742;29;20063;-59
2022/10/04 02:26:30;;;;;;;17.52;7.93;;;;;;;;;;4878424;29;20037;-59
2022/10/04 02:28:55;;;;;;;16.23;7.80;;;;;;;;;;4876501;29;20086;-59
2022/10/04 02:34:07;;;;;;;13.57;7.43;;;;;;;;;;4865942;29;20084;-59
2022/10/04 02:36:34;;;;;;;11.20;7.20;;;;;;;;;;4860032;29;20097;-58
2022/10/04 02:39:09;;;;;;;15.25;6.90;;;;;;;;;;4869832;29;20419;-58
2022/10/04 02:41:56;;;;;;;14.93;7.47;;;;;;;;;;4875724;29;20430;-60
2022/10/04 02:44:40;;;;;;;15.43;8.00;;;;;;;;;;4862868;29;20041;-59
2022/10/04 02:47:10;;;;;;;13.65;7.43;;;;;;;;;;4870068;29;20041;-58
2022/10/04 02:49:45;;;;;;;13.02;7.70;;;;;;;;;;4877423;29;20043;-58
2022/10/04 02:52:30;;;;;;;15.98;8.88;;;;;;;;;;4877715;29;20530;-58
2022/10/04 02:55:14;;;;;;;17.23;7.90;;;;;;;;;;4875632;29;20037;-59
2022/10/04 02:57:41;;;;;;;13.25;7.88;;;;;;;;;;4878895;29;20037;-58
2022/10/04 03:00:27;;;;;;;13.57;7.80;;;;;;;;;;4875403;29;20032;-58
2022/10/04 03:03:14;;;;;;;16.60;7.85;;;;;;;;;;4875654;29;20025;-57
2022/10/04 03:05:40;;;;;;;13.52;7.60;;;;;;;;;;4885218;29;20145;-58
2022/10/04 03:08:06;;;;;;;15.77;8.45;;;;;;;;;;4897509;29;20041;-57
2022/10/04 03:10:34;;;;;;;16.65;8.63;;;;;;;;;;4892672;29;20047;-56
2022/10/04 03:13:00;;;;;;;13.95;8.40;;;;;;;;;;4895495;29;20036;-59
2022/10/04 03:15:26;;;;;;;13.68;8.30;;;;;;;;;;4893301;29;20474;-58
2022/10/04 03:17:52;;;;;;;17.88;8.68;;;;;;;;;;4896006;29;20048;-58
2022/10/04 03:20:20;;;;;;;15.70;7.95;;;;;;;;;;4893074;29;20040;-60
2022/10/04 03:22:49;;;;;;;16.27;7.57;;;;;;;;;;4894379;29;20040;-58
2022/10/04 03:25:22;;;;;;;11.93;7.43;;;;;;;;;;4893844;29;20375;-59
2022/10/04 03:27:50;;;;;;;12.27;8.27;;;;;;;;;;4894597;29;20442;-58
2022/10/04 03:30:19;;;;;;;16.70;8.50;;;;;;;;;;4894256;29;20044;-59
2022/10/04 03:32:46;;;;;;;14.98;7.43;;;;;;;;;;4884905;29;20041;-58
2022/10/04 03:35:28;;;;;;;11.70;7.50;;;;;;;;;;4894716;29;20484;-58
2022/10/04 03:37:56;;;;;;;14.35;7.60;;;;;;;;;;4895419;29;20043;-59
2022/10/04 03:40:26;;;;;;;14.70;7.55;;;;;;;;;;4895222;29;20046;-58
2022/10/04 03:42:52;;;;;;;13.63;7.50;;;;;;;;;;4893872;29;20040;-58
2022/10/04 03:45:19;;;;;;;13.43;7.43;;;;;;;;;;4893088;29;20285;-59
2022/10/04 03:47:48;;;;;;;15.55;7.38;;;;;;;;;;4894279;29;20043;-59
2022/10/04 03:50:33;;;;;;;11.55;7.75;;;;;;;;;;4894008;29;20496;-58
2022/10/04 03:53:08;;;;;;;14.75;7.95;;;;;;;;;;4894966;29;20056;-58
2022/10/04 03:55:42;;;;;;;16.48;7.50;;;;;;;;;;4894702;29;20656;-58
2022/10/04 03:58:11;;;;;;;11.05;7.35;;;;;;;;;;4894729;29;20044;-58
2022/10/04 04:00:44;;;;;;;13.05;7.85;;;;;;;;;;4893451;29;20849;-58
2022/10/04 04:03:16;;;;;;;13.80;7.30;;;;;;;;;;4892565;29;20435;-59
2022/10/04 04:05:48;;;;;;;14.85;7.63;;;;;;;;;;4892442;29;20044;-60
2022/10/04 04:08:41;;;;;;;15.70;7.65;;;;;;;;;;4892875;29;20044;-58
2022/10/04 04:11:18;;;;;;;14.70;7.70;;;;;;;;;;4873481;29;20041;-59
2022/10/04 04:13:47;;;;;;;14.50;7.70;;;;;;;;;;4873941;29;20505;-58
2022/10/04 04:16:13;;;;;;;17.02;9.15;;;;;;;;;;4894471;29;20039;-60
2022/10/04 04:18:42;;;;;;;15.40;8.68;;;;;;;;;;4894392;29;20033;-60
2022/10/04 04:21:11;;;;;;;14.32;8.23;;;;;;;;;;4892188;29;20039;-59
2022/10/04 04:23:43;;;;;;;14.27;7.53;;;;;;;;;;4894385;29;20200;-59
2022/10/04 04:26:16;;;;;;;16.73;8.07;;;;;;;;;;4893328;29;21329;-60
2022/10/04 04:28:52;;;;;;;13.63;7.88;;;;;;;;;;4877274;29;20120;-59
2022/10/04 04:31:22;;;;;;;15.32;8.02;;;;;;;;;;4890841;29;20044;-59
2022/10/04 04:33:50;;;;;;;12.82;7.70;;;;;;;;;;4894909;29;20520;-58
2022/10/04 04:36:16;;;;;;;12.18;7.97;;;;;;;;;;4887571;29;20131;-59
2022/10/04 04:41:40;;;;;;;14.80;7.93;;;;;;;;;;4870605;29;20136;-59
2022/10/04 04:44:16;;;;;;;14.38;8.10;;;;;;;;;;4894532;29;20126;-59
2022/10/04 04:46:43;;;;;;;15.13;8.52;;;;;;;;;;4895341;29;20040;-59
2022/10/04 04:49:10;;;;;;;16.25;8.50;;;;;;;;;;4893240;29;20485;-58
2022/10/04 04:51:36;;;;;;;13.95;8.48;;;;;;;;;;4891482;29;20117;-60
2022/10/04 04:54:03;;;;;;;15.95;8.70;;;;;;;;;;4893632;29;20371;-59
2022/10/04 04:56:29;;;;;;;13.27;8.82;;;;;;;;;;4890804;29;20037;-60
2022/10/04 04:58:58;;;;;;;17.00;9.60;;;;;;;;;;4893986;29;20053;-59
2022/10/04 05:01:41;;;;;;;17.33;8.57;;;;;;;;;;4894255;29;20047;-59
2022/10/04 05:04:11;;;;;;;13.75;8.40;;;;;;;;;;4892838;29;20037;-59
2022/10/04 05:06:47;;;;;;;16.60;9.00;;;;;;;;;;4892772;29;20049;-59
2022/10/04 05:09:30;;;;;;;14.25;8.93;;;;;;;;;;4894531;29;20111;-60
2022/10/04 05:12:06;;;;;;;19.77;9.63;;;;;;;;;;4894833;29;20040;-58
2022/10/04 05:14:33;;;;;;;16.02;9.55;;;;;;;;;;4893039;29;20040;-60
2022/10/04 05:16:58;;;;;;;17.00;9.00;;;;;;;;;;4890912;29;20401;-59
2022/10/04 05:19:30;;;;;;;14.57;8.48;;;;;;;;;;4877840;29;20041;-58
2022/10/04 05:21:59;;;;;;;16.30;8.25;;;;;;;;;;4892676;29;20478;-59
2022/10/04 05:24:33;;;;;;;13.95;8.40;;;;;;;;;;4893191;29;20040;-59
2022/10/04 05:27:04;;;;;;;16.00;8.50;;;;;;;;;;4893614;29;20075;-70
2022/10/04 05:29:37;;;;;;;18.13;8.57;;;;;;;;;;4893727;29;20064;-62
2022/10/04 05:32:26;;;;;;;18.50;9.10;;;;;;;;;;4895747;29;20063;-64
2022/10/04 05:34:53;;;;;;;13.73;8.55;;;;;;;;;;4896831;29;20076;-65
2022/10/04 05:37:31;;;;;;;18.77;9.20;;;;;;;;;;4879612;29;20124;-64
2022/10/04 05:40:25;;;;;;;15.77;8.55;;;;;;;;;;4896758;29;20051;-64
2022/10/04 05:42:53;;;;;;;18.73;9.45;;;;;;;;;;4898725;29;20041;-62
2022/10/04 05:45:24;;;;;;;17.08;9.02;;;;;;;;;;4897158;29;20036;-64
2022/10/04 05:47:54;;;;;;;13.68;8.25;;;;;;;;;;4894231;29;20128;-60
2022/10/04 05:50:40;;;;;;;16.70;8.63;;;;;;;;;;4889800;29;20053;-61
2022/10/04 05:53:34;;;;;;;16.45;8.48;;;;;;;;;;4879776;29;20037;-60
2022/10/04 05:56:24;;;;;;;12.70;7.90;;;;;;;;;;4884280;29;20091;-60
2022/10/04 05:59:21;;;;;;;17.35;9.00;;;;;;;;;;4898470;29;20041;-60
2022/10/04 06:02:12;;;;;;;15.60;8.63;;;;;;;;;;4896364;29;20052;-61
2022/10/04 06:04:55;;;;;;;14.95;8.48;;;;;;;;;;4897834;29;20029;-60
2022/10/04 06:07:33;;;;;;;12.80;8.23;;;;;;;;;;4895595;29;20435;-60
2022/10/04 06:10:41;;;;;;;15.98;8.60;;;;;;;;;;4897830;29;20044;-61
2022/10/04 06:13:15;;;;;;;14.80;8.75;;;;;;;;;;4893905;29;20028;-61
2022/10/04 06:15:49;;;;;;;14.02;8.60;;;;;;;;;;4896313;29;20047;-59
2022/10/04 06:18:36;;;;;;;16.95;8.57;;;;;;;;;;4893333;29;20033;-61
2022/10/04 06:21:10;;;;;;;13.57;8.45;;;;;;;;;;4886414;29;20064;-61
2022/10/04 06:23:48;;;;;;;17.10;9.45;;;;;;;;;;4895923;29;20557;-61
2022/10/04 06:26:21;;;;;;;16.27;9.73;;;;;;;;;;4877500;29;20037;-58
2022/10/04 06:28:55;;;;;;;14.60;9.32;;;;;;;;;;4857805;29;20044;-62
2022/10/04 06:31:23;;;;;;;16.92;9.40;;;;;;;;;;4878643;29;20043;-60
2022/10/04 06:34:20;;;;;;;15.45;9.23;;;;;;;;;;4883977;29;20107;-61
2022/10/04 06:36:49;;;;;;;18.77;9.30;;;;;;;;;;4897254;29;20039;-59
2022/10/04 06:39:17;;;;;;;16.05;9.40;;;;;;;;;;4895873;29;20036;-60
2022/10/04 06:42:19;;;;;;;19.70;9.57;;;;;;;;;;4896436;29;20112;-62
2022/10/04 06:45:28;;;;;;;18.98;9.65;;;;;;;;;;4897792;29;20031;-62
2022/10/04 06:48:27;;;;;;;14.52;8.88;;;;;;;;;;4896009;29;20037;-59
2022/10/04 06:51:15;;;;;;;18.08;9.70;;;;;;;;;;4894205;29;20047;-60
2022/10/04 06:54:09;;;;;;;15.68;8.98;;;;;;;;;;4897675;29;20465;-60
2022/10/04 06:56:49;;;;;;;18.38;9.65;;;;;;;;;;4895206;29;20033;-61
2022/10/04 06:59:18;;;;;;;16.88;9.68;;;;;;;;;;4875695;29;20041;-60
2022/10/04 07:01:50;;;;;;;18.33;10.02;;;;;;;;;;4882894;29;20119;-61
2022/10/04 07:04:38;;;;;;;17.15;10.52;;;;;;;;;;4896981;29;20033;-61
2022/10/04 07:07:26;;;;;;;17.27;10.52;;;;;;;;;;4895397;29;20045;-60
2022/10/04 07:10:01;;;;;;;16.48;9.93;;;;;;;;;;4896560;29;20031;-60
2022/10/04 07:12:28;;;;;;;17.63;9.93;;;;;;;;;;4893531;29;20032;-60
2022/10/04 07:14:59;;;;;;;14.23;9.65;;;;;;;;;;4896195;29;20479;-61
2022/10/04 07:17:52;;;;;;;19.05;10.23;;;;;;;;;;4896297;29;20417;-61
2022/10/04 07:20:32;;;;;;;16.23;9.90;;;;;;;;;;4893802;29;20064;-61
2022/10/04 07:23:03;;;;;;;19.98;10.65;;;;;;;;;;4896519;29;20489;-61
2022/10/04 07:25:32;;;;;;;;;;;;;;;;;;4895564;29;20084;-56
2022/10/04 07:31:02;;;;;;;13.35;9.18;;;;;;;;;;4894576;29;20062;-56
2022/10/04 07:33:33;;;;;;;16.80;9.10;;;;;;;;;;4896154;29;20084;-59
2022/10/04 07:36:06;;;;;;;16.52;9.40;;;;;;;;;;4895970;29;20115;-59
2022/10/04 07:38:38;;;;;;;12.52;8.43;;;;;;;;;;4887625;29;20048;-60
2022/10/04 07:41:29;;;;;;;14.07;8.48;;;;;;;;;;4892294;29;20119;-60
2022/10/04 07:44:00;;;;;;;14.48;8.40;;;;;;;;;;4892655;29;20032;-61
2022/10/04 07:46:41;;;;;;;13.00;7.70;;;;;;;;;;4895624;29;20574;-60
2022/10/04 07:49:14;;;;;;;13.70;8.25;;;;;;;;;;4896324;29;20060;-57
2022/10/04 07:52:02;;;;;;;12.57;7.82;;;;;;;;;;4890810;29;20072;-61
2022/10/04 07:54:30;;;;;;;11.00;7.50;;;;;;;;;;4887185;29;20040;-61
2022/10/04 07:57:10;;;;;;;16.17;7.95;;;;;;;;;;4877586;29;20494;-60
2022/10/04 07:59:51;;;;;;;12.40;7.90;;;;;;;;;;4890680;29;20633;-61
2022/10/04 08:02:19;;;;;;;13.40;7.85;;;;;;;;;;4894371;29;20064;-60
2022/10/04 08:05:13;;;;;;;13.80;7.68;;;;;;;;;;4895569;29;20052;-64
2022/10/04 08:08:22;;;;;;;15.98;7.43;;;;;;;;;;4886585;29;20103;-61
2022/10/04 08:11:18;;;;;;;14.40;7.20;;;;;;;;;;4894406;29;20066;-60
2022/10/04 08:13:50;;;;;;;12.57;7.38;;;;;;;;;;4889940;29;20119;-61
2022/10/04 08:16:52;;;;;;;12.95;7.75;;;;;;;;;;4893899;29;20040;-60
2022/10/04 08:19:41;;;;;;;15.88;8.05;;;;;;;;;;4889862;29;20501;-59
2022/10/04 08:22:09;;;;;;;17.88;7.72;;;;;;;;;;4893351;29;20032;-57
2022/10/04 08:24:47;;;;;;;11.30;7.00;;;;;;;;;;4888024;29;20159;-60
2022/10/04 08:27:12;;;;;;;13.82;7.28;;;;;;;;;;4893446;29;20051;-60
2022/10/04 08:30:03;;;;;;;14.43;7.00;;;;;;;;;;4894430;29;20474;-60
2022/10/04 08:32:50;;;;;;;12.75;6.57;;;;;;;;;;4894545;29;20064;-60
2022/10/04 08:35:58;;;;;;;11.52;7.22;;;;;;;;;;4886975;29;20052;-60
2022/10/04 08:38:45;;;;;;;12.52;6.72;;;;;;;;;;4888479;29;20052;-61
2022/10/04 08:41:41;;;;;;;13.27;6.88;;;;;;;;;;4885408;29;20481;-60
2022/10/04 08:44:49;;;;;;;13.77;6.20;;;;;;;;;;4894116;29;20053;-60
2022/10/04 08:47:48;;;;;;;10.07;6.10;;;;;;;;;;4889878;29;20048;-60
2022/10/04 08:50:44;;;;;;;10.35;5.43;;;;;;;;;;4894201;29;20064;-61
2022/10/04 08:53:23;;;;;;;14.23;5.78;;;;;;;;;;4885795;29;20048;-61
2022/10/04 08:56:09;;;;;;;11.48;5.82;;;;;;;;;;4878891;29;20032;-61
2022/10/04 08:59:01;;;;;;;13.70;5.43;;;;;;;;;;4892548;29;20081;-60
2022/10/04 09:01:51;;;;;;;9.85;4.70;;;;;;;;;;4895084;29;20036;-60
2022/10/04 09:04:49;;;;;;;11.32;4.93;;;;;;;;;;4895258;29;20040;-60
2022/10/04 09:07:42;;;;;;;10.13;4.85;;;;;;;;;;4861922;29;20064;-60
2022/10/04 09:10:35;;;;;;;10.63;4.95;;;;;;;;;;4891014;29;20490;-60
2022/10/04 09:13:21;;;;;;;13.02;4.60;;;;;;;;;;4896581;29;20045;-60
2022/10/04 09:15:55;;;;;;;13.35;4.90;;;;;;;;;;4897846;29;20044;-60
2022/10/04 09:18:22;;;;;;;10.88;4.30;;;;;;;;;;4890972;29;20040;-59
2022/10/04 09:21:00;;;;;;;11.20;4.32;;;;;;;;;;4898581;29;20028;-60
2022/10/04 09:23:28;;;;;;;8.80;4.40;;;;;;;;;;4896944;29;20385;-60
2022/10/04 09:26:09;;;;;;;9.95;4.78;;;;;;;;;;4893440;29;20029;-56
2022/10/04 09:29:05;;;;;;;11.05;4.40;;;;;;;;;;4898544;29;20121;-60
2022/10/04 09:31:39;;;;;;;9.80;4.18;;;;;;;;;;4897525;29;20082;-56
2022/10/04 09:34:29;;;;;;;9.55;4.15;;;;;;;;;;4876400;29;20041;-60
2022/10/04 09:37:13;;;;;;;10.57;4.03;;;;;;;;;;4899170;29;20521;-60
2022/10/04 09:40:10;;;;;;;9.27;4.38;;;;;;;;;;4895188;29;20048;-60
2022/10/04 09:43:04;;;;;;;8.32;4.20;;;;;;;;;;4897070;29;20040;-61
2022/10/04 09:45:32;;;;;;;9.43;3.83;;;;;;;;;;4897909;29;20437;-60
2022/10/04 09:48:24;;;;;;;12.25;3.72;;;;;;;;;;4878222;29;20067;-60
2022/10/04 09:51:08;;;;;;;11.20;3.90;;;;;;;;;;4898812;29;20042;-60
2022/10/04 09:54:11;;;;;;;8.70;3.80;;;;;;;;;;4897973;29;20157;-60
2022/10/04 09:56:49;;;;;;;6.88;3.70;;;;;;;;;;4894449;29;20043;-61
2022/10/04 09:59:31;;;;;;;6.97;3.13;;;;;;;;;;4894899;29;20040;-59
2022/10/04 10:01:59;;;;;;;9.15;3.30;;;;;;;;;;4898498;29;20530;-59
2022/10/04 10:05:01;;;;;;;8.35;3.17;;;;;;;;;;4892986;29;20032;-62
2022/10/04 10:07:44;;;;;;;9.68;3.72;;;;;;;;;;4891882;29;20032;-56
2022/10/04 10:13:39;;;;;;;9.15;3.25;;;;;;;;;;4896337;29;20507;-59
2022/10/04 10:16:43;;;;;;;7.72;3.75;;;;;;;;;;4894593;29;20045;-59
2022/10/04 10:19:30;;;;;;;7.30;3.50;;;;;;;;;;4894241;29;20112;-58
2022/10/04 10:22:10;;;;;;;7.20;3.42;;;;;;;;;;4898291;29;20393;-60
2022/10/04 10:25:13;;;;;;;8.00;3.38;;;;;;;;;;4894835;29;20032;-57
2022/10/04 10:28:09;;;;;;;7.68;3.80;;;;;;;;;;4896836;29;20028;-57
2022/10/04 10:30:56;;;;;;;6.70;3.03;;;;;;;;;;4896062;29;20396;-58
2022/10/04 10:33:51;;;;;;;7.97;2.90;;;;;;;;;;4887734;29;20501;-56
2022/10/04 10:36:27;;;;;;;8.48;3.85;;;;;;;;;;4878165;29;20461;-58
2022/10/04 10:38:58;;;;;;;8.38;3.50;;;;;;;;;;4897894;29;20501;-58
2022/10/04 10:41:54;;;;;;;7.50;3.58;;;;;;;;;;4894176;29;20366;-57
2022/10/04 10:45:17;;;;;;;8.27;3.40;;;;;;;;;;4896009;29;20036;-59
2022/10/04 10:48:12;;;;;;;5.45;2.97;;;;;;;;;;4853709;29;20091;-59
2022/10/04 10:51:02;;;;;;;7.25;3.20;;;;;;;;;;4851454;29;20510;-60
2022/10/04 10:54:05;;;;;;;7.60;2.85;;;;;;;;;;4855865;29;20045;-59
2022/10/04 10:56:48;;;;;;;5.53;2.75;;;;;;;;;;4841641;29;20038;-60
2022/10/04 10:59:37;;;;;;;6.05;3.08;;;;;;;;;;4845644;29;20059;-59
2022/10/04 11:02:09;;;;;;;5.95;3.10;;;;;;;;;;4857261;29;20045;-59
2022/10/04 11:04:48;;;;;;;5.43;3.10;;;;;;;;;;4855502;29;20056;-60
2022/10/04 11:07:29;;;;;;;6.57;3.30;;;;;;;;;;4857151;29;20035;-60
2022/10/04 11:10:31;;;;;;;6.80;3.30;;;;;;;;;;4853992;29;20053;-60
2022/10/04 11:13:27;;;;;;;7.65;3.47;;;;;;;;;;4774166;30;20060;-61
2022/10/04 11:15:55;;;;;;;8.43;3.00;;;;;;;;;;4839066;29;20202;-61
2022/10/04 11:18:48;;;;;;;7.18;3.55;;;;;;;;;;4859929;29;20045;-58
2022/10/04 11:21:43;;;;;;;4.57;2.85;;;;;;;;;;4873661;29;20044;-61
2022/10/04 11:24:13;;;;;;;6.57;2.92;;;;;;;;;;4869712;29;20052;-61
2022/10/04 11:26:50;;;;;;;6.50;2.80;;;;;;;;;;4896012;29;20040;-62
2022/10/04 11:29:30;;;;;;;6.18;2.90;;;;;;;;;;4894060;29;20047;-61
2022/10/04 11:31:59;;;;;;;5.72;3.15;;;;;;;;;;4896793;29;20041;-66
2022/10/04 11:34:37;;;;;;;4.80;2.65;;;;;;;;;;4895459;29;20040;-62
2022/10/04 11:37:22;;;;;;;7.28;3.10;;;;;;;;;;4896284;29;20036;-60
2022/10/04 11:40:04;;;;;;;7.13;2.95;;;;;;;;;;4896610;29;20389;-62
2022/10/04 11:43:26;;;;;;;6.55;3.00;;;;;;;;;;4894287;29;20397;-62
2022/10/04 11:46:20;;;;;;;7.45;2.90;;;;;;;;;;4850882;29;20487;-62
2022/10/04 11:49:09;;;;;;;5.68;2.80;;;;;;;;;;4838244;29;20129;-63
2022/10/04 11:51:53;;;;;;;7.57;3.00;;;;;;;;;;4844702;29;20049;-63
2022/10/04 11:54:38;;;;;;;8.57;3.33;;;;;;;;;;4855026;29;20045;-62
2022/10/04 11:57:30;;;;;;;6.72;3.00;;;;;;;;;;4855592;29;20124;-62
2022/10/04 12:00:13;;;;;;;9.18;3.38;;;;;;;;;;4833231;29;20461;-59
2022/10/04 12:02:45;;;;;;;7.35;2.80;;;;;;;;;;4832078;29;20050;-60
2022/10/04 12:05:41;;;;;;;6.13;3.10;;;;;;;;;;4835984;29;20393;-60
2022/10/04 12:08:16;;;;;;;8.07;3.03;;;;;;;;;;4834126;29;20060;-59
2022/10/04 12:10:58;;;;;;;7.22;2.95;;;;;;;;;;4838063;29;20114;-59
2022/10/04 12:13:38;;;;;;;5.03;2.83;;;;;;;;;;4849032;29;20045;-59
2022/10/04 12:16:12;;;;;;;8.30;2.85;;;;;;;;;;4867646;29;20477;-59
2022/10/04 12:19:01;;;;;;;8.15;3.00;;;;;;;;;;4894626;29;20040;-60
2022/10/04 12:21:45;;;;;;;6.28;2.83;;;;;;;;;;4893859;29;20028;-59
2022/10/04 12:24:26;;;;;;;6.65;2.55;;;;;;;;;;4892790;29;20458;-59
2022/10/04 12:26:53;;;;;;;7.93;3.03;;;;;;;;;;4895452;29;20095;-59
2022/10/04 12:29:54;;;;;;;6.53;3.00;;;;;;;;;;4893627;29;20058;-59
2022/10/04 12:32:30;;;;;;;;;;;;;;;;;;4876841;29;20085;-59
2022/10/04 12:35:19;;;;;;;7.25;2.97;;;;;;;;;;4891782;29;19918;-59
2022/10/04 12:38:21;;;;;;;6.55;2.95;;;;;;;;;;4893893;29;20751;-59
2022/10/04 12:41:18;;;;;;;5.78;2.70;;;;;;;;;;4894521;29;20123;-60
2022/10/04 12:44:10;;;;;;;5.00;2.75;;;;;;;;;;4877520;29;20045;-60
2022/10/04 12:46:53;;;;;;;6.32;2.80;;;;;;;;;;4872462;29;20045;-60
2022/10/04 12:49:40;;;;;;;6.22;2.92;;;;;;;;;;4893226;29;20481;-60
2022/10/04 12:52:19;;;;;;;5.45;2.75;;;;;;;;;;4898512;29;20036;-60
2022/10/04 12:55:09;;;;;;;6.85;3.08;;;;;;;;;;4898793;29;20050;-59
2022/10/04 12:57:52;;;;;;;7.30;3.00;;;;;;;;;;4888462;29;20041;-61
2022/10/04 13:00:21;;;;;;;7.50;3.10;;;;;;;;;;4898849;29;20037;-60
2022/10/04 13:03:26;;;;;;;6.03;2.90;;;;;;;;;;4894910;29;20068;-58
2022/10/04 13:06:07;;;;;;;6.53;2.60;;;;;;;;;;4898209;29;20048;-61
2022/10/04 13:09:03;;;;;;;6.60;2.83;;;;;;;;;;4880389;29;20045;-58
2022/10/04 13:11:51;;;;;;;5.28;2.90;;;;;;;;;;4886367;29;20536;-62
2022/10/04 13:14:38;;;;;;;6.25;3.10;;;;;;;;;;4898817;29;20041;-61
2022/10/04 13:17:12;;;;;;;5.47;2.78;;;;;;;;;;4898797;29;20098;-60
2022/10/04 13:19:51;;;;;;;5.72;2.75;;;;;;;;;;4882004;29;20478;-61
2022/10/04 13:22:31;;;;;;;4.43;2.70;;;;;;;;;;4897578;29;20037;-60
2022/10/04 13:25:15;;;;;;;5.78;2.53;;;;;;;;;;4882536;29;20124;-61
2022/10/04 13:28:04;;;;;;;6.05;2.42;;;;;;;;;;4912176;29;20072;-62
2022/10/04 13:30:54;;;;;;;6.68;2.50;;;;;;;;;;4880175;29;20375;-61
2022/10/04 13:33:29;;;;;;;6.55;2.30;;;;;;;;;;4881874;29;20043;-60
2022/10/04 13:36:10;;;;;;;3.30;1.90;;;;;;;;;;4879394;29;20041;-61
2022/10/04 13:38:48;;;;;;;4.38;2.25;;;;;;;;;;4895258;29;20091;-60
2022/10/04 13:41:35;;;;;;;4.78;2.15;;;;;;;;;;4898478;29;20035;-60
2022/10/04 13:44:09;;;;;;;4.03;2.00;;;;;;;;;;4897123;29;20036;-60
2022/10/04 13:47:03;;;;;;;4.22;2.40;;;;;;;;;;4898160;29;20041;-60
2022/10/04 13:49:52;;;;;;;5.93;2.33;;;;;;;;;;4897648;29;20040;-61
2022/10/04 13:59:00;;;;;;;4.60;2.40;;;;;;;;;;4894358;29;20087;-61
2022/10/04 14:01:45;;;;;;;4.78;2.30;;;;;;;;;;4879751;29;20055;-61
2022/10/04 14:04:28;;;;;;;4.93;2.28;;;;;;;;;;4897065;29;20075;-62
2022/10/04 14:07:33;;;;;;;4.05;2.50;;;;;;;;;;4876552;29;20093;-63
2022/10/04 14:10:47;;;;;;;7.13;2.13;;;;;;;;;;4881803;29;20039;-63
2022/10/04 14:13:27;;;;;;;3.45;2.10;;;;;;;;;;4879715;29;20055;-62
2022/10/04 14:15:55;;;;;;;6.85;2.30;;;;;;;;;;4892804;29;20033;-64
2022/10/04 14:18:39;;;;;;;5.40;2.42;;;;;;;;;;4881048;29;20083;-63
2022/10/04 14:21:29;;;;;;;6.00;2.38;;;;;;;;;;4892236;29;20033;-62
2022/10/04 14:24:16;;;;;;;7.10;2.57;;;;;;;;;;4897141;29;20037;-62
2022/10/04 14:27:30;;;;;;;6.13;2.40;;;;;;;;;;4894272;29;20115;-70
2022/10/04 14:30:11;;;;;;;4.10;2.05;;;;;;;;;;4881724;29;20470;-67
2022/10/04 14:32:55;;;;;;;6.05;2.55;;;;;;;;;;4879119;29;20046;-64
2022/10/04 14:35:33;;;;;;;7.10;2.60;;;;;;;;;;4879975;29;20044;-61
2022/10/04 14:38:19;;;;;;;7.05;2.70;;;;;;;;;;4889426;29;20642;-62
2022/10/04 14:41:20;;;;;;;6.97;2.63;;;;;;;;;;4881349;29;20035;-62
2022/10/04 14:44:03;;;;;;;7.45;2.40;;;;;;;;;;4897318;29;20500;-61
2022/10/04 14:47:12;;;;;;;5.55;2.42;;;;;;;;;;4897413;29;20513;-64
2022/10/04 14:50:27;;;;;;;4.65;2.65;;;;;;;;;;4824381;29;20095;-62
2022/10/04 14:53:22;;;;;;;4.95;2.33;;;;;;;;;;4827454;29;20411;-61
2022/10/04 14:56:13;;;;;;;5.82;2.65;;;;;;;;;;4837638;29;20399;-62
2022/10/04 14:58:57;;;;;;;5.50;2.58;;;;;;;;;;4837816;29;20499;-62
2022/10/04 15:01:27;;;;;;;5.13;2.60;;;;;;;;;;4838093;29;20054;-61
2022/10/04 15:04:12;;;;;;;;;;;;;;;;;;4838561;29;20052;-61
2022/10/04 15:06:48;;;;;;;4.30;2.47;;;;;;;;;;4836937;29;19942;-61
2022/10/04 15:09:40;;;;;;;5.25;2.40;;;;;;;;;;4838338;29;20113;-61
2022/10/04 15:12:27;;;;;;;6.85;2.70;;;;;;;;;;4832947;29;20034;-63
2022/10/04 15:15:11;;;;;;;4.20;2.30;;;;;;;;;;4830015;29;20511;-62
2022/10/04 15:17:55;;;;;;;5.55;2.67;;;;;;;;;;4837863;29;20152;-63
2022/10/04 15:20:24;;;;;;;5.47;2.40;;;;;;;;;;4837697;29;20054;-62
2022/10/04 15:23:13;;;;;;;5.45;2.50;;;;;;;;;;4837453;29;20514;-64
2022/10/04 15:25:47;;;;;;;5.43;2.88;;;;;;;;;;4836931;29;20048;-64
2022/10/04 15:28:36;;;;;;;5.85;2.60;;;;;;;;;;4891807;29;20039;-61
2022/10/04 15:31:43;;;;;;;6.40;2.40;;;;;;;;;;4897546;29;20036;-63
2022/10/04 15:34:09;;;;;;;4.57;2.47;;;;;;;;;;4881220;29;20474;-62
2022/10/04 15:36:50;;;;;;;6.05;2.80;;;;;;;;;;4893436;29;20103;-63
2022/10/04 15:39:15;;;;;;;5.78;2.85;;;;;;;;;;4895251;29;20039;-62
2022/10/04 15:41:47;;;;;;;5.50;2.60;;;;;;;;;;4895682;29;20111;-63
2022/10/04 15:44:28;;;;;;;6.63;2.70;;;;;;;;;;4873668;29;20036;-62
2022/10/04 15:47:14;;;;;;;5.63;2.97;;;;;;;;;;4890509;29;20088;-62
2022/10/04 15:50:09;;;;;;;6.10;2.88;;;;;;;;;;4895878;29;20508;-62
2022/10/04 15:53:02;;;;;;;8.82;3.90;;;;;;;;;;4892998;29;20036;-62
2022/10/04 15:55:33;;;;;;;7.68;2.80;;;;;;;;;;4871728;29;20056;-61
2022/10/04 15:58:26;;;;;;;9.25;3.28;;;;;;;;;;4880715;29;20124;-62
2022/10/04 16:01:01;;;;;;;5.78;2.92;;;;;;;;;;4861376;29;20486;-60
2022/10/04 16:03:39;;;;;;;6.57;3.22;;;;;;;;;;4878311;29;20044;-60
2022/10/04 16:06:13;;;;;;;6.53;2.67;;;;;;;;;;4894169;29;20902;-60
2022/10/04 16:08:41;;;;;;;4.88;2.85;;;;;;;;;;4892894;29;20470;-60
2022/10/04 16:11:29;;;;;;;6.32;2.85;;;;;;;;;;4893831;29;20036;-60
2022/10/04 16:14:27;;;;;;;7.15;3.15;;;;;;;;;;4895155;29;20123;-60